EGKK/LGW METAR and TAF weather

Enter ICAO airport designator
Station Type Date Time Source
EGKK METAR 2020/07/11 21:20 UTC NOAA

EGKK 112120Z VRB02KT CAVOK 17/07 Q1028


Station Type Date Time Source
EGKK Decoded METAR 2020/07/11 21:20 UTC NOAA

London / Gatwick Airport, United Kingdom (EGKK) 51-09N 000-11W 0M
Jul 11, 2020 - 05:20 PM EDT / 2020.07.11 2120 UTC
Wind: Variable at 2 MPH (2 KT):0
Visibility: greater than 7 mile(s):0
Temperature: 62 F (17 C)
Dew Point: 44 F (7 C)
Relative Humidity: 51%
Pressure (altimeter): 30.36 in. Hg (1028 hPa)
ob: EGKK 112120Z VRB02KT CAVOK 17/07 Q1028
cycle: 21

Station Type Date Time Source
EGKK TAF 2020/07/11 18:07 UTC NOAA

TAF EGKK 111656Z 1118/1224 32010KT 9999 FEW045
BECMG 1120/1123 VRB03KT PROB40 1202/1207 7000
BECMG 1213/1216 20010KT

Example: see airport list